createdAt,value
2022-08-02T00:00:39.668Z,0.80
2022-08-02T00:05:41.382Z,0.95
2022-08-02T00:10:43.107Z,0.60
2022-08-02T00:15:44.867Z,1.50
2022-08-02T00:20:46.686Z,0.95
2022-08-02T00:25:55.325Z,0.70
2022-08-02T00:30:58.319Z,0.87
2022-08-02T00:36:00.062Z,0.63
2022-08-02T00:41:01.828Z,0.63
2022-08-02T00:46:04.091Z,0.52
2022-08-02T00:51:05.940Z,0.45
2022-08-02T00:56:07.905Z,0.70
2022-08-02T01:01:09.861Z,0.77
2022-08-02T01:06:11.948Z,0.80
2022-08-02T01:11:13.879Z,0.60
2022-08-02T01:16:21.192Z,1.02
2022-08-02T01:21:49.737Z,0.40
2022-08-02T01:27:03.406Z,0.60
2022-08-02T01:32:13.004Z,0.70
2022-08-02T01:37:37.834Z,1.10
2022-08-02T01:42:45.683Z,0.90
2022-08-02T01:47:48.994Z,1.08
2022-08-02T01:52:53.874Z,0.70
2022-08-02T01:58:00.833Z,1.35
2022-08-02T02:03:05.834Z,1.33
2022-08-02T02:08:09.568Z,1.20
2022-08-02T02:13:18.600Z,1.55
2022-08-02T02:18:29.422Z,1.20
2022-08-02T02:23:34.097Z,1.27
2022-08-02T02:28:38.894Z,1.20
2022-08-02T02:33:46.919Z,1.27
2022-08-02T02:38:50.589Z,1.10
2022-08-02T02:43:55.450Z,1.10
2022-08-02T02:48:57.967Z,1.43
2022-08-02T02:54:29.802Z,1.65
2022-08-02T02:59:23.404Z,1.10
2022-08-02T03:04:27.627Z,1.30
2022-08-02T03:09:54.426Z,1.00
2022-08-02T03:14:58.832Z,1.43
2022-08-02T03:20:00.657Z,1.60
2022-08-02T03:25:02.402Z,1.60
2022-08-02T03:30:06.222Z,1.30
2022-08-02T03:35:10.968Z,1.10
2022-08-02T03:40:13.189Z,1.00
2022-08-02T03:45:15.812Z,1.00
2022-08-02T03:50:19.689Z,1.00
2022-08-02T03:55:21.461Z,1.02
2022-08-02T04:00:35.916Z,0.90
2022-08-02T04:05:37.706Z,0.90
2022-08-02T04:10:59.461Z,0.90
2022-08-02T04:16:10.418Z,1.00
2022-08-02T04:21:15.005Z,1.00
2022-08-02T04:26:17.555Z,1.50
2022-08-02T04:31:20.341Z,0.90
2022-08-02T04:36:30.915Z,1.00
2022-08-02T04:41:43.777Z,1.03
2022-08-02T04:46:46.883Z,0.80
2022-08-02T04:51:48.632Z,1.05
2022-08-02T04:56:50.361Z,0.73
2022-08-02T05:01:52.146Z,0.65
2022-08-02T05:06:53.927Z,0.57
2022-08-02T05:11:55.655Z,0.80
2022-08-02T05:16:57.386Z,0.60
2022-08-02T05:21:59.718Z,0.70
2022-08-02T05:27:01.504Z,1.10
2022-08-02T05:32:18.590Z,0.60
2022-08-02T05:37:20.306Z,0.97
2022-08-02T05:42:22.052Z,0.45
2022-08-02T05:47:23.811Z,0.50
2022-08-02T05:52:30.209Z,0.65
2022-08-02T05:57:48.690Z,0.80
2022-08-02T06:03:04.325Z,0.80
2022-08-02T06:08:07.634Z,0.73
2022-08-02T06:13:14.631Z,0.60
2022-08-02T06:18:16.807Z,0.47
2022-08-02T06:23:22.893Z,0.40
2022-08-02T06:28:25.905Z,0.50
2022-08-02T06:33:27.650Z,0.80
2022-08-02T06:38:33.859Z,1.02
2022-08-02T06:43:44.437Z,0.60
2022-08-02T06:48:46.655Z,0.60
2022-08-02T06:53:48.872Z,0.63
2022-08-02T06:58:50.620Z,0.50
2022-08-02T07:03:54.059Z,1.00
2022-08-02T07:09:19.566Z,0.97
2022-08-02T07:14:20.153Z,0.40
2022-08-02T07:19:21.855Z,0.68
2022-08-02T07:24:39.447Z,0.40
2022-08-02T07:29:45.467Z,0.98
2022-08-02T07:34:50.965Z,0.70
2022-08-02T07:39:55.112Z,0.67
2022-08-02T07:44:57.528Z,0.90
2022-08-02T07:49:59.341Z,0.93
2022-08-02T07:55:01.088Z,0.90
2022-08-02T08:00:04.733Z,0.73
2022-08-02T08:05:07.240Z,0.80
2022-08-02T08:10:09.639Z,0.77
2022-08-02T08:15:11.493Z,0.90
2022-08-02T08:20:15.928Z,0.70
2022-08-02T08:25:17.878Z,0.80
2022-08-02T08:30:21.075Z,0.63
2022-08-02T08:35:23.183Z,1.40
2022-08-02T08:40:26.017Z,1.13
2022-08-02T08:45:27.753Z,0.80
2022-08-02T08:50:32.874Z,0.80
2022-08-02T08:55:37.181Z,0.70
2022-08-02T09:00:38.888Z,0.70
2022-08-02T09:05:41.232Z,0.60
2022-08-02T09:10:47.743Z,0.80
2022-08-02T09:16:11.151Z,0.63
2022-08-02T09:21:16.748Z,0.80
2022-08-02T09:26:21.825Z,0.93
2022-08-02T09:31:24.112Z,0.73
2022-08-02T09:36:27.558Z,0.57
2022-08-02T09:41:31.844Z,1.10
2022-08-02T09:46:37.898Z,0.77
2022-08-02T09:51:47.644Z,1.05
2022-08-02T09:56:54.665Z,0.80
2022-08-02T10:02:01.847Z,0.77
2022-08-02T10:07:06.289Z,0.85
2022-08-02T10:12:08.335Z,0.80
2022-08-02T10:17:10.552Z,0.70
2022-08-02T10:22:14.666Z,0.98
2022-08-02T10:27:21.165Z,0.82
2022-08-02T10:32:42.876Z,0.90
2022-08-02T10:37:47.725Z,0.60
2022-08-02T10:42:52.676Z,0.70
2022-08-02T10:47:59.950Z,1.02
2022-08-02T10:53:29.268Z,0.60
2022-08-02T10:58:33.130Z,1.20
2022-08-02T11:03:39.521Z,0.83
2022-08-02T11:08:41.814Z,0.80
2022-08-02T11:14:05.060Z,0.90
2022-08-02T11:19:07.145Z,0.73
2022-08-02T11:24:29.930Z,0.80
2022-08-02T11:29:38.533Z,0.90
2022-08-02T11:34:42.275Z,1.02
2022-08-02T11:39:50.929Z,0.70
2022-08-02T11:44:52.728Z,0.60
2022-08-02T11:50:08.014Z,0.70
2022-08-02T11:55:11.260Z,1.02
2022-08-02T12:00:18.370Z,0.70
2022-08-02T12:05:24.722Z,0.90
2022-08-02T12:10:48.505Z,0.50
2022-08-02T12:15:50.208Z,0.75
2022-08-02T12:20:52.136Z,0.40
2022-08-02T12:26:03.449Z,0.50
2022-08-02T12:31:09.956Z,0.50
2022-08-02T12:36:19.677Z,0.70
2022-08-02T12:41:31.915Z,0.38
2022-08-02T12:46:41.887Z,0.40
2022-08-02T12:51:51.036Z,0.30
2022-08-02T12:57:14.917Z,0.25
2022-08-02T13:02:17.731Z,0.30
2022-08-02T13:07:20.125Z,0.30
2022-08-02T13:12:21.981Z,0.40
2022-08-02T13:17:23.727Z,0.47
2022-08-02T13:22:25.702Z,0.30
2022-08-02T13:27:30.675Z,0.20
2022-08-02T13:32:32.543Z,0.45
2022-08-02T13:37:34.541Z,0.30
2022-08-02T13:42:42.336Z,0.35
2022-08-02T13:48:03.949Z,0.50
2022-08-02T13:53:06.414Z,0.30
2022-08-02T13:58:08.197Z,0.30
2022-08-02T14:03:12.145Z,0.30
2022-08-02T14:08:17.016Z,0.40
2022-08-02T14:13:19.346Z,0.30
2022-08-02T14:18:21.084Z,0.40
2022-08-02T14:23:49.465Z,0.32
2022-08-02T14:28:44.894Z,0.20
2022-08-02T14:33:51.709Z,0.32
2022-08-02T14:38:53.445Z,0.77
2022-08-02T14:43:55.209Z,0.35
2022-08-02T14:48:56.996Z,0.40
2022-08-02T14:54:02.751Z,0.30
2022-08-02T14:59:05.050Z,0.50
2022-08-02T15:04:06.792Z,0.35
2022-08-02T15:09:08.632Z,0.43
2022-08-02T15:14:10.368Z,0.40
2022-08-02T15:19:12.199Z,0.50
2022-08-02T15:24:14.812Z,0.30
2022-08-02T15:29:20.258Z,0.30
2022-08-02T15:34:21.980Z,0.32
2022-08-02T15:39:23.862Z,0.50
2022-08-02T15:44:25.593Z,0.50
2022-08-02T15:49:27.478Z,0.30
2022-08-02T15:54:29.383Z,0.50
2022-08-02T15:59:31.113Z,0.50
2022-08-02T16:04:32.885Z,0.50
2022-08-02T16:09:34.591Z,0.32
2022-08-02T16:14:36.318Z,0.50
2022-08-02T16:19:48.606Z,0.43
2022-08-02T16:24:52.884Z,0.53
2022-08-02T16:29:54.640Z,0.57
2022-08-02T16:35:08.708Z,0.50
2022-08-02T16:40:11.513Z,0.43
2022-08-02T16:45:14.116Z,0.50
2022-08-02T16:50:16.270Z,0.60
2022-08-02T16:55:31.905Z,0.40
2022-08-02T17:00:35.300Z,0.60
2022-08-02T17:05:38.126Z,0.60
2022-08-02T17:10:57.376Z,0.40
2022-08-02T17:16:20.503Z,0.40
2022-08-02T17:21:27.770Z,0.70
2022-08-02T17:26:30.147Z,0.40
2022-08-02T17:31:42.857Z,0.60
2022-08-02T17:36:49.624Z,0.60
2022-08-02T17:41:51.933Z,0.55
2022-08-02T17:46:53.643Z,0.40
2022-08-02T17:52:16.095Z,0.43
2022-08-02T17:57:18.404Z,0.50
2022-08-02T18:02:20.146Z,0.50
2022-08-02T18:07:24.999Z,0.80
2022-08-02T18:12:27.172Z,0.73
2022-08-02T18:17:29.457Z,0.40
2022-08-02T18:22:31.213Z,0.50
2022-08-02T18:27:33.384Z,0.60
2022-08-02T18:33:55.093Z,0.60
2022-08-02T18:38:03.549Z,0.75
2022-08-02T18:43:07.219Z,0.90
2022-08-02T18:48:09.601Z,1.00
2022-08-02T18:53:11.373Z,0.80
2022-08-02T18:58:19.717Z,1.27
2022-08-02T19:03:22.462Z,0.95
2022-08-02T19:08:25.487Z,1.00
2022-08-02T19:13:28.265Z,0.80
2022-08-02T19:18:30.330Z,0.70
2022-08-02T19:23:32.121Z,0.93
2022-08-02T19:28:34.106Z,1.00
2022-08-02T19:34:06.587Z,0.90
2022-08-02T19:38:57.502Z,0.90
2022-08-02T19:44:25.924Z,0.80
2022-08-02T19:49:39.921Z,0.98
2022-08-02T19:54:54.347Z,0.97
2022-08-02T19:59:57.939Z,0.73
2022-08-02T20:04:59.672Z,1.00
2022-08-02T20:10:01.865Z,1.67
2022-08-02T20:15:14.493Z,1.77
2022-08-02T20:20:18.153Z,1.50
2022-08-02T20:25:20.987Z,1.45
2022-08-02T20:30:25.490Z,1.10
2022-08-02T20:35:27.551Z,1.55
2022-08-02T20:40:30.108Z,2.00
2022-08-02T20:45:33.584Z,2.08
2022-08-02T20:50:35.549Z,2.20
2022-08-02T20:55:48.480Z,2.10
2022-08-02T21:00:50.722Z,2.10
2022-08-02T21:05:54.775Z,1.45
2022-08-02T21:10:57.514Z,1.50
2022-08-02T21:16:01.606Z,1.30
2022-08-02T21:21:10.131Z,1.60
2022-08-02T21:26:12.627Z,1.65
2022-08-02T21:31:14.356Z,1.45
2022-08-02T21:36:16.693Z,1.40
2022-08-02T21:41:19.676Z,1.17
2022-08-02T21:46:21.495Z,1.38
2022-08-02T21:51:24.339Z,1.43
2022-08-02T21:56:26.100Z,1.55
2022-08-02T22:01:28.462Z,1.47
2022-08-02T22:06:32.422Z,1.30
2022-08-02T22:11:35.290Z,2.20
2022-08-02T22:16:37.352Z,1.40
2022-08-02T22:21:54.563Z,1.40
2022-08-02T22:26:57.261Z,1.40
2022-08-02T22:31:58.995Z,1.17
2022-08-02T22:37:00.973Z,1.27
2022-08-02T22:42:06.566Z,1.00
2022-08-02T22:47:14.970Z,0.98
2022-08-02T22:52:20.073Z,1.55
2022-08-02T22:57:30.619Z,1.10
2022-08-02T23:02:33.079Z,1.20
2022-08-02T23:07:37.053Z,1.23
2022-08-02T23:12:40.891Z,1.45
2022-08-02T23:17:42.705Z,1.60
2022-08-02T23:22:44.456Z,1.45
2022-08-02T23:27:50.231Z,1.83
2022-08-02T23:32:52.652Z,1.60
2022-08-02T23:37:59.105Z,1.95
2022-08-02T23:43:02.981Z,1.30
2022-08-02T23:48:15.291Z,1.20
2022-08-02T23:53:16.995Z,1.20
2022-08-02T23:58:18.713Z,1.38
